Time;durP1;ratioP1;P1;durP2;ratioP2;P2;SDS_P1;SDS_P2;PMS_P1;PMS_P2;Temp;Humidity;BMP_temperature;BMP_pressure;BME280_temperature;BME280_humidity;BME280_pressure;Samples;Min_cycle;Max_cycle;Signal;HPM_P1;HPM_P2
2023/07/08 00:00:17;;;;;;;3.55;3.00;;;;;;;23.18;47.93;102106.91;5035236;28;20032;-84
2023/07/08 00:02:47;;;;;;;4.40;2.60;;;;;;;23.06;47.83;102080.88;5047683;28;20033;-83
2023/07/08 00:05:14;;;;;;;6.00;2.97;;;;;;;23.19;47.98;102097.94;5029489;28;20048;-83
2023/07/08 00:07:41;;;;;;;3.92;2.78;;;;;;;23.16;47.87;102092.09;5050104;28;20029;-82
2023/07/08 00:10:24;;;;;;;4.03;2.88;;;;;;;23.20;47.98;102094.28;5022379;28;20037;-82
2023/07/08 00:12:51;;;;;;;3.55;2.80;;;;;;;23.18;47.75;102098.09;5032371;28;20124;-82
2023/07/08 00:15:22;;;;;;;3.47;2.85;;;;;;;23.07;48.07;102083.34;5025184;28;20053;-83
2023/07/08 00:17:48;;;;;;;4.65;2.75;;;;;;;23.17;47.87;102096.44;5032757;28;20052;-83
2023/07/08 00:20:33;;;;;;;4.15;2.85;;;;;;;23.09;47.81;102085.81;5030680;28;20273;-83
2023/07/08 00:23:03;;;;;;;3.15;2.50;;;;;;;23.16;48.02;102092.09;5031649;28;20160;-83
2023/07/08 00:25:30;;;;;;;;;;;;;;;23.16;47.87;102092.97;5032092;28;20298;-83
2023/07/08 00:27:55;;;;;;;4.78;3.10;;;;;;;23.16;47.91;102095.63;5033819;28;19963;-83
2023/07/08 00:30:27;;;;;;;3.78;2.40;;;;;;;23.15;48.03;102091.28;5048904;28;20122;-83
2023/07/08 00:32:54;;;;;;;3.92;2.85;;;;;;;23.10;48.06;102088.31;5032509;28;20091;-83
2023/07/08 00:35:28;;;;;;;3.20;2.53;;;;;;;23.10;48.13;102084.81;5035222;28;20037;-82
2023/07/08 00:37:53;;;;;;;3.60;2.53;;;;;;;23.12;47.94;102091.63;5014592;28;20140;-83
2023/07/08 00:40:21;;;;;;;3.20;2.53;;;;;;;23.08;48.14;102087.66;5025707;28;20107;-83
2023/07/08 00:42:48;;;;;;;3.35;2.53;;;;;;;23.10;47.96;102090.97;5029149;28;20503;-83
2023/07/08 00:45:24;;;;;;;3.40;2.80;;;;;;;23.09;48.14;102080.50;5034751;28;20045;-83
2023/07/08 00:47:51;;;;;;;3.40;2.80;;;;;;;23.08;48.16;102079.69;5037140;28;20072;-83
2023/07/08 00:50:17;;;;;;;5.45;2.97;;;;;;;23.09;48.08;102088.50;5048909;28;20072;-83
2023/07/08 00:52:45;;;;;;;4.28;2.92;;;;;;;23.04;48.11;102074.91;5029707;28;20029;-83
2023/07/08 00:55:11;;;;;;;3.45;2.60;;;;;;;23.05;48.09;102082.69;5030684;28;20048;-83
2023/07/08 00:57:41;;;;;;;4.63;3.00;;;;;;;23.09;48.28;102085.81;5013706;28;20038;-83
2023/07/08 01:00:15;;;;;;;3.72;2.90;;;;;;;23.09;48.31;102086.66;5030828;28;20018;-82
2023/07/08 01:02:49;;;;;;;3.78;2.95;;;;;;;23.07;48.43;102082.50;5031610;28;20063;-83
2023/07/08 01:05:19;;;;;;;5.68;3.13;;;;;;;23.02;48.28;102074.25;5032460;28;20040;-82
2023/07/08 01:07:51;;;;;;;4.03;2.70;;;;;;;22.81;47.88;102041.06;5032782;28;20037;-83
2023/07/08 01:10:23;;;;;;;4.65;3.10;;;;;;;22.99;48.45;102061.31;5030469;28;20044;-83
2023/07/08 01:12:54;;;;;;;3.38;2.60;;;;;;;23.01;48.32;102067.28;5023102;28;20033;-83
2023/07/08 01:15:23;;;;;;;3.67;2.60;;;;;;;22.99;48.22;102064.78;5033730;28;20722;-83
2023/07/08 01:17:53;;;;;;;3.50;2.83;;;;;;;23.07;48.09;102072.72;5029019;28;20191;-83
2023/07/08 01:20:19;;;;;;;4.28;2.95;;;;;;;23.07;48.14;102069.22;5010682;28;20038;-83
2023/07/08 01:22:45;;;;;;;2.92;2.42;;;;;;;23.07;48.14;102071.88;5031668;28;20090;-82
2023/07/08 01:25:13;;;;;;;4.18;2.80;;;;;;;23.07;48.30;102075.38;5024631;28;20557;-83
2023/07/08 01:27:42;;;;;;;3.35;2.70;;;;;;;23.02;48.17;102063.63;5023833;28;20740;-82
2023/07/08 01:30:09;;;;;;;2.92;2.38;;;;;;;23.06;48.01;102070.25;5031061;28;20032;-83
2023/07/08 01:32:39;;;;;;;4.32;2.70;;;;;;;23.04;48.31;102073.06;5025749;28;20046;-83
2023/07/08 01:35:06;;;;;;;3.90;2.72;;;;;;;23.04;48.29;102065.09;5053042;28;20040;-83
2023/07/08 01:37:38;;;;;;;3.80;2.70;;;;;;;22.95;48.15;102044.03;5033054;28;20037;-83
2023/07/08 01:40:18;;;;;;;4.25;3.03;;;;;;;23.04;48.40;102050.97;5032233;28;20033;-83
2023/07/08 01:42:45;;;;;;;2.92;2.50;;;;;;;23.02;48.21;102048.50;5026895;28;20228;-83
2023/07/08 01:45:17;;;;;;;4.50;2.72;;;;;;;22.94;48.29;102032.56;5025847;28;20068;-83
2023/07/08 01:48:05;;;;;;;3.35;2.70;;;;;;;22.97;48.15;102028.75;5026439;28;20034;-83
2023/07/08 01:50:36;;;;;;;3.83;2.83;;;;;;;22.96;48.33;102033.22;5048327;28;20082;-83
2023/07/08 01:53:08;;;;;;;3.10;2.63;;;;;;;22.99;48.23;102038.22;5031574;28;20029;-83
2023/07/08 01:55:35;;;;;;;4.45;2.88;;;;;;;23.02;48.32;102047.69;5025939;28;20040;-83
2023/07/08 01:58:00;;;;;;;3.42;2.40;;;;;;;23.01;48.25;102040.72;5033078;28;20037;-83
2023/07/08 02:00:26;;;;;;;3.67;2.65;;;;;;;23.01;48.25;102036.22;5031133;28;20107;-82
2023/07/08 02:02:52;;;;;;;3.25;2.60;;;;;;;22.89;48.10;102017.16;5029878;28;20037;-82
2023/07/08 02:05:18;;;;;;;4.35;2.90;;;;;;;22.97;48.29;102031.41;5044798;28;20049;-82
2023/07/08 02:07:44;;;;;;;3.35;2.70;;;;;;;22.75;48.38;101991.28;5029131;28;20045;-83
2023/07/08 02:10:09;;;;;;;3.90;3.00;;;;;;;23.01;48.20;102035.41;5032956;28;20041;-83
2023/07/08 02:12:35;;;;;;;3.72;2.70;;;;;;;22.91;48.21;102019.63;5029276;28;20465;-82
2023/07/08 02:15:02;;;;;;;3.95;2.85;;;;;;;22.97;48.35;102031.41;5028958;28;20504;-82
2023/07/08 02:17:28;;;;;;;3.67;2.50;;;;;;;22.95;48.29;102026.25;5031025;28;20045;-82
2023/07/08 02:19:57;;;;;;;3.63;2.95;;;;;;;22.99;48.23;102018.81;5046754;28;20056;-82
2023/07/08 02:22:23;;;;;;;3.60;2.53;;;;;;;23.00;48.26;102021.28;5025834;28;20073;-82
2023/07/08 02:24:49;;;;;;;4.80;3.00;;;;;;;22.99;48.29;102024.13;5027344;28;20670;-83
2023/07/08 02:27:15;;;;;;;4.22;2.60;;;;;;;22.98;48.36;102011.81;5040900;28;20045;-83
2023/07/08 02:29:40;;;;;;;3.78;2.80;;;;;;;22.97;48.31;102015.47;5046206;28;20048;-83
2023/07/08 02:32:06;;;;;;;3.58;2.60;;;;;;;22.91;48.48;102003.72;5030473;28;20418;-82
2023/07/08 02:34:32;;;;;;;3.50;2.60;;;;;;;22.85;48.33;101994.59;5033242;28;20132;-83
2023/07/08 02:36:58;;;;;;;3.33;2.50;;;;;;;22.92;48.41;102002.69;5007515;28;20099;-82
2023/07/08 02:39:24;;;;;;;4.93;2.90;;;;;;;22.94;48.23;101999.88;5027617;28;20068;-83
2023/07/08 02:41:49;;;;;;;3.47;2.50;;;;;;;22.87;48.40;101992.59;5043414;28;20211;-83
2023/07/08 02:44:15;;;;;;;4.05;2.78;;;;;;;22.92;48.56;101995.56;5012724;28;20037;-83
2023/07/08 02:46:40;;;;;;;3.30;2.92;;;;;;;22.97;48.61;102007.50;5042848;28;20487;-83
2023/07/08 02:49:06;;;;;;;3.35;2.80;;;;;;;22.87;48.63;101989.94;5026082;28;20672;-83
2023/07/08 02:51:33;;;;;;;9.30;3.15;;;;;;;22.89;48.20;101992.44;5027167;28;20080;-84
2023/07/08 02:53:58;;;;;;;3.60;2.83;;;;;;;22.89;48.36;101984.47;5024763;28;20045;-84
2023/07/08 02:56:26;;;;;;;3.72;3.00;;;;;;;22.94;48.30;101994.56;5026448;28;20052;-84
2023/07/08 02:58:52;;;;;;;3.92;2.90;;;;;;;22.92;48.27;101989.41;5003570;28;20038;-84
2023/07/08 03:01:18;;;;;;;5.07;2.90;;;;;;;22.90;48.28;101975.50;5026893;28;20041;-84
2023/07/08 03:03:45;;;;;;;4.20;3.00;;;;;;;22.96;48.24;101990.72;5012094;28;20060;-83
2023/07/08 03:06:10;;;;;;;2.85;2.55;;;;;;;22.96;48.39;101990.72;5022006;28;20123;-84
2023/07/08 03:08:36;;;;;;;5.30;3.03;;;;;;;22.78;48.43;101955.56;5029597;28;20744;-84
2023/07/08 03:11:04;;;;;;;2.85;2.60;;;;;;;22.96;48.39;101985.41;5044812;28;20399;-84
2023/07/08 03:13:31;;;;;;;3.92;2.70;;;;;;;22.92;48.62;101990.25;5019051;28;20048;-84
2023/07/08 03:15:59;;;;;;;3.65;3.03;;;;;;;22.87;48.44;101976.66;5044109;28;20099;-84
2023/07/08 03:18:26;;;;;;;4.55;2.60;;;;;;;22.81;48.55;101972.03;5028178;28;20034;-84
2023/07/08 03:20:55;;;;;;;2.80;2.50;;;;;;;22.91;48.35;101979.81;5031655;28;20041;-84
2023/07/08 03:23:25;;;;;;;3.10;2.33;;;;;;;22.90;48.49;101976.31;5031128;28;21254;-84
2023/07/08 03:25:52;;;;;;;3.58;2.80;;;;;;;22.90;48.48;101973.66;5032654;28;20091;-84
2023/07/08 03:28:20;;;;;;;2.88;2.38;;;;;;;22.87;48.49;101975.84;5043811;28;20593;-84
2023/07/08 03:30:52;;;;;;;3.63;2.85;;;;;;;22.92;48.38;101974.31;5049918;28;20041;-84
2023/07/08 03:33:17;;;;;;;3.42;2.70;;;;;;;22.91;48.55;101970.00;5023865;28;20038;-85
2023/07/08 03:35:45;;;;;;;3.78;2.83;;;;;;;22.92;48.67;101974.31;5017757;28;20037;-84
2023/07/08 03:38:10;;;;;;;4.47;2.90;;;;;;;22.90;48.52;101970.19;5015655;28;20141;-84
2023/07/08 03:40:36;;;;;;;3.70;2.95;;;;;;;22.86;48.67;101964.38;5032083;28;20041;-84
2023/07/08 03:43:02;;;;;;;4.50;2.90;;;;;;;22.90;48.56;101975.50;5018796;28;20044;-83
2023/07/08 03:45:29;;;;;;;4.45;2.90;;;;;;;22.83;48.64;101969.22;5034756;28;20045;-84
2023/07/08 03:47:56;;;;;;;4.30;2.60;;;;;;;22.86;48.49;101961.72;5051739;28;20136;-83
2023/07/08 03:50:25;;;;;;;3.13;2.83;;;;;;;22.90;48.21;101968.34;5014750;28;20041;-84
2023/07/08 03:52:53;;;;;;;;;;;;;;;22.90;48.42;101965.69;5049712;28;20040;-83
2023/07/08 03:55:21;;;;;;;3.05;2.63;;;;;;;22.90;48.49;101967.53;5015190;28;20417;-84
2023/07/08 03:57:47;;;;;;;3.70;3.03;;;;;;;22.89;48.32;101968.53;5046033;28;20064;-84
2023/07/08 04:00:13;;;;;;;3.33;2.75;;;;;;;22.90;48.70;101960.38;5047479;28;20088;-83
2023/07/08 04:02:39;;;;;;;3.70;2.92;;;;;;;;;;5033055;28;20033;-84
2023/07/08 04:05:09;;;;;;;4.63;3.03;;;;;;;22.65;48.55;101926.13;5049163;28;20118;-84
2023/07/08 04:07:35;;;;;;;3.58;2.80;;;;;;;22.87;48.35;101962.56;5033615;28;20032;-83
2023/07/08 04:10:00;;;;;;;3.60;2.63;;;;;;;22.81;48.45;101948.13;5028524;28;20121;-83
2023/07/08 04:12:27;;;;;;;4.25;2.90;;;;;;;22.87;48.34;101959.91;5026606;28;20050;-84
2023/07/08 04:14:52;;;;;;;5.43;2.80;;;;;;;22.85;48.52;101964.56;5027084;28;20037;-84
2023/07/08 04:17:18;;;;;;;2.88;2.50;;;;;;;22.83;48.47;101964.75;4997967;28;20068;-83
2023/07/08 04:19:45;;;;;;;3.83;3.03;;;;;;;22.89;48.26;101971.19;5031107;28;20179;-84
2023/07/08 04:22:11;;;;;;;3.20;2.63;;;;;;;22.84;48.29;101962.91;5031366;28;20053;-84
2023/07/08 04:24:36;;;;;;;3.72;2.78;;;;;;;22.83;48.60;101980.69;5028642;28;20041;-84
2023/07/08 04:27:03;;;;;;;3.85;2.83;;;;;;;22.80;48.45;101970.38;5032199;28;20049;-83
2023/07/08 04:29:28;;;;;;;3.40;2.80;;;;;;;22.63;48.59;101944.88;5044976;28;20040;-83
2023/07/08 04:31:54;;;;;;;3.45;2.80;;;;;;;22.80;48.51;101966.84;5026477;28;20049;-84
2023/07/08 04:34:20;;;;;;;3.70;2.80;;;;;;;22.65;48.44;101942.88;5031492;28;20048;-83
2023/07/08 04:36:46;;;;;;;4.25;3.08;;;;;;;22.86;48.51;101977.66;5026222;28;20399;-83
2023/07/08 04:39:13;;;;;;;3.33;3.03;;;;;;;22.90;48.53;101986.94;5030771;28;20513;-83
2023/07/08 04:41:40;;;;;;;3.13;2.70;;;;;;;22.88;48.34;101980.97;5022960;28;20042;-83
2023/07/08 04:44:12;;;;;;;3.60;2.88;;;;;;;22.87;48.52;101981.16;5030751;28;20038;-84
2023/07/08 04:46:42;;;;;;;3.30;2.85;;;;;;;22.89;48.65;101982.63;5029698;28;20043;-83
2023/07/08 04:49:09;;;;;;;2.50;2.30;;;;;;;22.89;48.54;101979.16;5030215;28;20042;-83
2023/07/08 04:51:36;;;;;;;4.68;2.97;;;;;;;22.85;48.52;101981.31;5029284;28;20045;-82
2023/07/08 04:54:01;;;;;;;3.38;2.78;;;;;;;22.92;48.53;101984.09;5031634;28;20038;-85
2023/07/08 04:56:45;;;;;;;3.83;2.78;;;;;;;22.84;48.16;101969.03;5033135;28;20119;-84
2023/07/08 04:59:15;;;;;;;3.53;2.80;;;;;;;22.87;48.28;101976.66;5031888;28;20053;-84
2023/07/08 05:01:41;;;;;;;3.60;2.85;;;;;;;22.92;48.31;101978.81;5039089;28;20148;-84
2023/07/08 05:04:07;;;;;;;3.58;3.10;;;;;;;22.91;48.57;101979.81;5033425;28;20060;-84
2023/07/08 05:06:34;;;;;;;2.85;2.55;;;;;;;22.92;48.19;101984.09;5029864;28;20083;-84
2023/07/08 05:09:00;;;;;;;3.00;2.53;;;;;;;22.90;48.27;101978.16;5031639;28;20042;-84
2023/07/08 05:11:26;;;;;;;3.15;2.75;;;;;;;22.94;48.21;101987.41;5031746;28;20029;-84
2023/07/08 05:13:52;;;;;;;4.07;3.22;;;;;;;22.95;48.08;101982.94;5032009;28;20132;-84
2023/07/08 05:16:18;;;;;;;3.58;3.10;;;;;;;22.88;48.17;101970.34;5051811;28;20060;-85
2023/07/08 05:18:45;;;;;;;4.07;3.05;;;;;;;22.98;48.04;101986.09;5016846;28;20527;-84
2023/07/08 05:21:11;;;;;;;4.30;3.03;;;;;;;22.95;48.24;101981.09;5028515;28;20685;-85
2023/07/08 05:23:37;;;;;;;4.38;2.92;;;;;;;22.84;48.28;101954.94;5036921;28;20037;-84
2023/07/08 05:26:04;;;;;;;3.58;2.80;;;;;;;22.85;48.27;101962.72;5031414;28;20111;-83
2023/07/08 05:28:33;;;;;;;4.55;3.30;;;;;;;22.92;48.43;101970.81;5048570;28;20033;-84
2023/07/08 05:30:59;;;;;;;4.30;3.10;;;;;;;22.92;48.09;101965.50;5029946;28;20041;-84
2023/07/08 05:33:27;;;;;;;5.10;3.33;;;;;;;22.94;48.23;101965.34;5043125;28;20085;-83
2023/07/08 05:35:53;;;;;;;4.50;2.97;;;;;;;22.75;48.44;101924.06;5031283;28;20037;-83
2023/07/08 05:38:20;;;;;;;3.75;2.70;;;;;;;22.95;48.07;101964.34;5033393;28;20041;-83
2023/07/08 05:40:56;;;;;;;4.03;3.10;;;;;;;23.02;48.23;101974.13;5051797;28;20834;-83
2023/07/08 05:43:21;;;;;;;5.05;3.30;;;;;;;23.02;48.04;101976.78;5035245;28;20448;-83
2023/07/08 05:45:47;;;;;;;3.78;3.10;;;;;;;22.98;48.23;101964.84;5049951;28;20065;-82
2023/07/08 05:48:12;;;;;;;3.97;2.88;;;;;;;22.98;48.18;101971.97;5013102;28;20048;-83
2023/07/08 05:50:40;;;;;;;3.70;3.08;;;;;;;23.01;47.95;101969.81;5033616;28;20025;-83
2023/07/08 05:53:08;;;;;;;4.13;3.05;;;;;;;22.70;47.75;101921.94;5032678;28;20525;-83
2023/07/08 05:55:34;;;;;;;3.50;2.72;;;;;;;23.06;48.09;101975.41;5033172;28;20554;-85
2023/07/08 05:57:59;;;;;;;3.83;2.83;;;;;;;22.82;48.12;101941.00;4998668;28;20045;-84
2023/07/08 06:00:25;;;;;;;5.80;3.42;;;;;;;23.05;47.71;101975.59;5035131;28;20034;-84
2023/07/08 06:02:50;;;;;;;3.65;2.90;;;;;;;22.98;47.82;101962.19;5032594;28;20045;-84
2023/07/08 06:05:16;;;;;;;3.42;2.80;;;;;;;22.97;48.13;101960.50;5028559;28;20049;-84
2023/07/08 06:07:42;;;;;;;4.70;3.30;;;;;;;23.01;48.24;101969.81;5015749;28;20068;-84
2023/07/08 06:10:07;;;;;;;3.35;2.70;;;;;;;23.02;47.76;101967.97;5023237;28;20037;-83
2023/07/08 06:12:33;;;;;;;4.25;2.95;;;;;;;23.02;47.83;101971.47;4985733;28;20040;-82
2023/07/08 06:14:59;;;;;;;4.75;3.17;;;;;;;23.05;47.84;101971.09;5039104;28;20039;-82
2023/07/08 06:17:24;;;;;;;5.00;3.05;;;;;;;23.00;47.95;101952.22;5008770;28;20050;-85
2023/07/08 06:19:50;;;;;;;5.47;2.90;;;;;;;23.06;47.77;101953.34;5016084;28;20559;-85
2023/07/08 06:22:16;;;;;;;3.08;2.75;;;;;;;23.07;48.02;101952.34;5033756;28;20467;-85
2023/07/08 06:24:41;;;;;;;4.07;2.83;;;;;;;23.04;47.80;101942.88;5031722;28;20050;-84
2023/07/08 06:27:07;;;;;;;4.22;3.28;;;;;;;23.04;47.87;101934.91;5032194;28;20044;-85
2023/07/08 06:29:34;;;;;;;4.07;2.72;;;;;;;23.10;47.76;101952.81;5034146;28;20040;-84
2023/07/08 06:32:00;;;;;;;3.70;2.78;;;;;;;22.96;47.65;101921.66;5028474;28;20102;-85
2023/07/08 06:34:25;;;;;;;4.13;3.20;;;;;;;23.11;47.82;101946.50;5017439;28;20036;-83
2023/07/08 06:36:51;;;;;;;3.60;2.72;;;;;;;23.11;47.91;101949.16;5030175;28;20045;-85
2023/07/08 06:39:17;;;;;;;3.00;2.60;;;;;;;23.13;47.85;101951.63;5028454;28;20467;-84
2023/07/08 06:41:43;;;;;;;3.67;3.03;;;;;;;23.13;47.63;101951.63;5045377;28;20114;-84
2023/07/08 06:44:09;;;;;;;3.15;2.60;;;;;;;23.14;47.81;101950.63;5025709;28;20045;-83
2023/07/08 06:46:34;;;;;;;3.95;3.13;;;;;;;23.13;47.71;101949.81;5030255;28;20046;-82
2023/07/08 06:49:00;;;;;;;4.43;3.38;;;;;;;23.10;47.77;101936.03;5027459;28;20060;-82
2023/07/08 06:51:26;;;;;;;3.78;2.90;;;;;;;23.17;47.70;101945.81;4999675;28;20044;-82
2023/07/08 06:53:52;;;;;;;3.72;2.85;;;;;;;23.19;47.92;101940.31;5027611;28;20414;-82
2023/07/08 06:56:17;;;;;;;4.00;2.83;;;;;;;23.21;47.46;101930.34;5030426;28;20030;-81
2023/07/08 06:58:43;;;;;;;3.90;2.70;;;;;;;23.17;47.16;101929.88;5022499;28;20040;-81
2023/07/08 07:01:08;;;;;;;3.15;2.60;;;;;;;23.21;47.58;101931.16;5041046;28;20167;-82
2023/07/08 07:03:34;;;;;;;3.92;3.05;;;;;;;23.30;47.42;101933.75;5028083;28;20052;-84
2023/07/08 07:06:00;;;;;;;3.40;2.78;;;;;;;23.25;47.31;101909.56;5030370;28;20052;-83
2023/07/08 07:08:26;;;;;;;4.00;2.92;;;;;;;23.28;47.38;101920.66;5034843;28;20033;-83
2023/07/08 07:10:51;;;;;;;3.85;2.50;;;;;;;23.34;47.36;101927.94;5016144;28;20041;-84
2023/07/08 07:13:16;;;;;;;2.70;2.50;;;;;;;23.40;47.23;101943.16;5012056;28;20021;-82
2023/07/08 07:15:42;;;;;;;4.57;2.92;;;;;;;23.38;47.37;101925.75;5036805;28;20041;-83
2023/07/08 07:18:08;;;;;;;4.10;2.97;;;;;;;23.39;47.25;101922.09;5046197;28;20041;-85
2023/07/08 07:20:35;;;;;;;3.05;2.75;;;;;;;23.41;47.16;101928.88;5013705;28;20063;-85
2023/07/08 07:23:01;;;;;;;3.47;2.90;;;;;;;23.44;47.34;101914.41;5047715;28;20064;-84
2023/07/08 07:25:27;;;;;;;5.20;3.10;;;;;;;23.49;46.96;101922.66;4997303;28;20076;-85
2023/07/08 07:27:52;;;;;;;3.58;2.90;;;;;;;23.48;47.24;101911.19;5016491;28;20044;-85
2023/07/08 07:30:18;;;;;;;3.75;2.92;;;;;;;23.62;47.16;101932.75;5029948;28;20029;-85
2023/07/08 07:32:44;;;;;;;3.80;2.97;;;;;;;23.63;47.13;101921.91;5032330;28;20131;-85
2023/07/08 07:35:12;;;;;;;3.88;3.00;;;;;;;23.60;47.17;101914.31;5029177;28;20529;-84
2023/07/08 07:37:39;;;;;;;3.38;3.00;;;;;;;23.69;47.15;101918.53;5031109;28;20068;-85
2023/07/08 07:40:14;;;;;;;4.53;3.03;;;;;;;23.72;46.85;101912.88;5032699;28;20076;-85
2023/07/08 07:42:41;;;;;;;4.15;2.60;;;;;;;23.75;47.01;101915.19;5030209;28;21121;-85
2023/07/08 07:45:07;;;;;;;4.88;3.30;;;;;;;23.78;46.83;101912.16;5024774;28;20029;-85
2023/07/08 07:47:33;;;;;;;4.05;3.17;;;;;;;23.81;46.90;101910.97;5014935;28;20056;-85
2023/07/08 07:49:59;;;;;;;2.90;2.60;;;;;;;23.83;46.97;101900.97;5029027;28;20041;-84
2023/07/08 07:52:25;;;;;;;3.38;3.08;;;;;;;23.86;46.75;101905.09;5037983;28;20053;-84
2023/07/08 07:54:55;;;;;;;4.68;3.42;;;;;;;23.89;47.02;101908.25;5028935;28;20113;-84
2023/07/08 07:57:21;;;;;;;;;;;;;;;23.89;47.00;101908.25;5035307;28;20041;-85
2023/07/08 07:59:48;;;;;;;5.38;3.53;;;;;;;23.93;46.74;101906.06;5038660;28;19924;-84
2023/07/08 08:02:18;;;;;;;5.50;3.03;;;;;;;23.87;46.79;101896.09;5026599;28;20055;-85
2023/07/08 08:04:43;;;;;;;;;;;;;;;23.96;46.78;101909.16;5033647;28;20048;-85
2023/07/08 08:07:09;;;;;;;4.85;3.78;;;;;;;23.96;46.74;101909.16;5030416;28;19925;-84
2023/07/08 08:09:36;;;;;;;3.75;3.15;;;;;;;23.89;46.85;101889.63;5016101;28;20041;-85
2023/07/08 08:12:03;;;;;;;3.50;2.85;;;;;;;24.01;46.61;101909.44;5034583;28;20087;-84
2023/07/08 08:14:28;;;;;;;4.07;3.03;;;;;;;24.01;46.77;101904.13;5033158;28;20034;-84
2023/07/08 08:16:54;;;;;;;3.60;3.00;;;;;;;24.05;46.63;101913.38;5031883;28;20491;-85
2023/07/08 08:19:20;;;;;;;5.03;3.28;;;;;;;24.09;46.45;101903.22;5046325;28;20049;-84
2023/07/08 08:21:45;;;;;;;4.07;3.10;;;;;;;24.08;46.71;101913.06;5050519;28;20064;-84
2023/07/08 08:24:13;;;;;;;4.28;3.25;;;;;;;24.10;46.66;101912.88;5016395;28;20038;-84
2023/07/08 08:26:38;;;;;;;4.05;3.13;;;;;;;24.11;46.63;101923.31;5047874;28;20510;-85
2023/07/08 08:29:04;;;;;;;4.40;3.03;;;;;;;24.09;46.49;101911.22;5051558;28;20048;-84
2023/07/08 08:31:31;;;;;;;5.03;3.22;;;;;;;24.04;46.56;101895.78;5015059;28;20048;-85
2023/07/08 08:33:56;;;;;;;3.42;3.10;;;;;;;24.11;46.50;101907.34;5029344;28;20045;-85
2023/07/08 08:36:22;;;;;;;3.47;3.15;;;;;;;24.16;46.59;101914.78;5049953;28;20037;-84
2023/07/08 08:38:48;;;;;;;3.97;3.17;;;;;;;24.19;46.56;101919.75;5034629;28;20774;-84
2023/07/08 08:41:16;;;;;;;4.90;3.10;;;;;;;24.21;46.33;101917.72;5042920;28;20075;-85
2023/07/08 08:43:44;;;;;;;3.55;2.75;;;;;;;24.14;46.52;101898.19;5033666;28;20048;-84
2023/07/08 08:46:36;;;;;;;4.05;3.47;;;;;;;24.16;46.51;101903.31;5034051;28;20046;-83
2023/07/08 08:49:25;;;;;;;4.22;3.03;;;;;;;24.21;46.25;101909.72;5027508;28;20088;-85
2023/07/08 08:51:51;;;;;;;4.70;3.55;;;;;;;24.20;46.38;101904.59;5047512;28;20585;-85
2023/07/08 08:54:16;;;;;;;5.43;3.92;;;;;;;24.15;46.44;101902.50;5033714;28;20068;-85
2023/07/08 08:56:51;;;;;;;5.20;3.80;;;;;;;24.18;46.50;101910.09;5031675;28;20037;-84
2023/07/08 08:59:16;;;;;;;7.43;4.20;;;;;;;24.18;46.53;101909.28;5022654;28;20065;-84
2023/07/08 09:01:43;;;;;;;9.80;4.50;;;;;;;24.08;46.71;101893.59;5032778;28;20112;-84
2023/07/08 09:04:19;;;;;;;6.40;4.10;;;;;;;24.10;46.75;101896.91;5048466;28;20365;-84
2023/07/08 09:06:48;;;;;;;6.28;3.88;;;;;;;24.10;46.95;101891.56;5049015;28;20029;-83
2023/07/08 09:09:40;;;;;;;4.47;3.90;;;;;;;24.05;46.99;101888.63;5012138;28;20038;-85
2023/07/08 09:12:14;;;;;;;4.95;3.75;;;;;;;23.98;47.06;101872.56;5035067;28;20105;-84
2023/07/08 09:14:40;;;;;;;4.30;3.80;;;;;;;24.07;47.16;101887.44;5028761;28;20097;-84
2023/07/08 09:17:06;;;;;;;6.43;3.80;;;;;;;24.10;47.25;101889.75;5031449;28;20076;-84
2023/07/08 09:19:41;;;;;;;4.20;3.65;;;;;;;24.07;47.16;101881.31;5028392;28;20126;-84
2023/07/08 09:22:17;;;;;;;5.72;3.75;;;;;;;24.11;47.15;101885.25;5034083;28;20407;-85
2023/07/08 09:24:50;;;;;;;5.68;3.75;;;;;;;24.11;47.22;101879.91;5029743;28;20182;-84
2023/07/08 09:27:16;;;;;;;6.55;4.35;;;;;;;24.10;47.32;101883.59;5027822;28;20112;-85
2023/07/08 09:29:41;;;;;;;6.43;3.92;;;;;;;24.07;47.42;101887.44;5032512;28;20040;-84
2023/07/08 09:32:17;;;;;;;5.65;3.67;;;;;;;24.08;47.41;101888.28;5049406;28;20056;-84
2023/07/08 09:35:06;;;;;;;4.70;3.50;;;;;;;24.08;47.52;101889.09;5045965;28;20127;-83
2023/07/08 09:37:33;;;;;;;8.57;3.90;;;;;;;24.06;47.56;101888.47;5024110;28;20049;-84
2023/07/08 09:40:02;;;;;;;4.05;3.60;;;;;;;24.05;47.62;101885.94;5025426;28;20112;-84
2023/07/08 09:42:31;;;;;;;5.93;3.72;;;;;;;24.03;47.79;101890.63;5034253;28;20041;-84
2023/07/08 09:45:01;;;;;;;5.50;3.88;;;;;;;24.05;47.62;101900.09;5049720;28;20032;-84
2023/07/08 09:47:35;;;;;;;5.10;3.72;;;;;;;24.05;47.60;101892.09;5032425;28;20539;-84
2023/07/08 09:50:03;;;;;;;5.30;3.42;;;;;;;24.03;47.85;101894.13;5028581;28;20046;-85
2023/07/08 09:52:31;;;;;;;5.78;4.00;;;;;;;23.95;47.84;101875.59;5046164;28;20063;-87
2023/07/08 09:54:56;;;;;;;5.55;3.60;;;;;;;24.02;47.72;101883.66;5012493;28;20041;-85
2023/07/08 09:57:28;;;;;;;4.72;3.53;;;;;;;24.01;47.97;101882.00;5029408;28;20046;-85
2023/07/08 10:00:11;;;;;;;5.93;3.67;;;;;;;24.02;48.02;101887.16;5027744;28;20090;-83
2023/07/08 10:02:53;;;;;;;5.70;3.78;;;;;;;24.02;47.85;101881.00;5025446;28;20084;-83
2023/07/08 10:05:24;;;;;;;5.82;3.60;;;;;;;24.04;47.78;101884.31;5027287;28;20029;-82
2023/07/08 10:07:57;;;;;;;6.28;3.80;;;;;;;24.02;48.03;101881.81;5029020;28;20452;-82
2023/07/08 10:10:36;;;;;;;4.32;3.63;;;;;;;23.94;47.85;101873.94;5028406;28;20041;-82
2023/07/08 10:13:21;;;;;;;3.78;3.22;;;;;;;24.03;48.04;101887.97;5026306;28;20476;-82
2023/07/08 10:15:52;;;;;;;7.55;3.78;;;;;;;24.01;47.92;101893.47;5025631;28;20045;-81
2023/07/08 10:18:28;;;;;;;5.22;3.67;;;;;;;24.05;47.85;101883.28;5028651;28;20101;-81
2023/07/08 10:21:03;;;;;;;6.32;3.70;;;;;;;24.07;47.66;101878.63;5030115;28;20036;-82
2023/07/08 10:23:37;;;;;;;4.70;4.05;;;;;;;24.07;47.77;101878.63;5027468;28;20037;-82
2023/07/08 10:26:32;;;;;;;7.80;3.88;;;;;;;24.07;47.98;101876.81;5026016;28;20037;-83
2023/07/08 10:29:56;;;;;;;6.85;3.90;;;;;;;24.06;48.13;101869.00;5027247;28;20094;-81
2023/07/08 10:32:52;;;;;;;7.60;4.00;;;;;;;24.04;48.08;101863.84;4994814;28;20049;-81
2023/07/08 10:35:20;;;;;;;7.05;4.00;;;;;;;24.06;47.87;101874.34;5028042;28;20807;-82
2023/07/08 10:38:24;;;;;;;4.50;4.10;;;;;;;24.06;48.23;101877.81;5026329;28;20042;-82
2023/07/08 10:40:54;;;;;;;10.63;4.30;;;;;;;24.08;47.99;101880.28;5030857;28;20052;-81
2023/07/08 10:43:28;;;;;;;5.25;3.90;;;;;;;24.07;48.13;101875.97;5029240;28;20491;-81
2023/07/08 10:46:18;;;;;;;5.10;4.10;;;;;;;24.01;48.44;101866.03;5029664;28;20045;-81
2023/07/08 10:49:05;;;;;;;6.22;3.72;;;;;;;24.08;48.26;101869.66;5022693;28;20160;-82
2023/07/08 10:52:12;;;;;;;6.05;4.15;;;;;;;24.00;47.96;101853.75;5042210;28;20120;-81
2023/07/08 10:55:16;;;;;;;7.25;3.92;;;;;;;24.09;48.12;101874.78;5014839;28;20053;-81
2023/07/08 10:57:53;;;;;;;5.38;4.07;;;;;;;24.10;48.21;101865.78;5028387;28;20103;-81
2023/07/08 11:00:29;;;;;;;6.85;4.20;;;;;;;24.07;48.35;101860.00;5019462;28;20056;-82
2023/07/08 11:02:58;;;;;;;4.93;3.58;;;;;;;24.07;48.20;101862.69;5025524;28;20045;-82
2023/07/08 11:05:38;;;;;;;5.05;4.00;;;;;;;24.04;48.32;101855.84;5026778;28;20041;-81
2023/07/08 11:08:14;;;;;;;6.13;4.22;;;;;;;24.07;48.37;101870.66;5021858;28;20034;-79
2023/07/08 11:11:05;;;;;;;4.85;3.85;;;;;;;24.01;48.37;101853.56;5024608;28;20043;-80
2023/07/08 11:13:34;;;;;;;5.70;4.43;;;;;;;24.07;49.00;101858.19;5030709;28;20029;-81
2023/07/08 11:16:09;;;;;;;9.55;4.85;;;;;;;24.09;48.50;101858.00;5028514;28;20029;-81
2023/07/08 11:18:58;;;;;;;6.07;4.10;;;;;;;24.09;49.17;101856.16;5021856;28;20089;-82
2023/07/08 11:21:32;;;;;;;4.43;3.92;;;;;;;24.11;48.62;101859.47;5025695;28;20047;-82
2023/07/08 11:24:18;;;;;;;8.10;4.30;;;;;;;24.10;48.81;101849.81;5019225;28;20104;-81
2023/07/08 11:26:50;;;;;;;5.32;4.18;;;;;;;23.93;48.68;101824.41;5029294;28;20046;-80
2023/07/08 11:29:36;;;;;;;6.00;3.72;;;;;;;24.10;48.99;101846.34;5030489;28;20042;-81
2023/07/08 11:32:05;;;;;;;6.07;4.43;;;;;;;24.08;48.72;101835.06;5025354;28;20103;-81
2023/07/08 11:34:33;;;;;;;7.38;4.32;;;;;;;24.11;49.02;101838.16;5032117;28;20029;-81
2023/07/08 11:37:00;;;;;;;4.80;4.22;;;;;;;24.10;49.01;101838.34;5029941;28;20188;-81